Impacts TAF Board
For situational awareness. Not to be used for flight planning purposes.
IDs:

KCLT - Charlotte/Douglas In, NC, US

Issued at 1953 UTC 24 Apr 2019
Updated at 2148 UTC 24 Apr 2019
Potential Impact None Slight Moderate High
Time2052Z 24/22Z 24/23Z 25/00Z 25/01Z 25/02Z 25/03Z 25/04Z 25/05Z 25/06Z 25/07Z 25/08Z 25/09Z 25/10Z>>
Type OBS PRVL PRVL PRVL PRVL PRVL PRVL PRVL PRVL PRVL PRVL PRVL PRVL PRVL
VIS 10 >6 >6 >6 >6 >6 >6 >6 >6 >6 >6 >6 >6 >6
CIG -- -- -- -- -- -- -- -- -- -- -- -- -- --
Cover SCT SCT SCT SCT SCT SCT SCT SCT SCT SCT SCT SCT SCT SCT
FltCat VFR VFR VFR VFR VFR VFR VFR VFR VFR VFR VFR VFR VFR VFR
WX -- -- -- -- -- -- -- -- -- -- -- -- -- --
WDir 210 200 200 210 210 210 210 210 210 210 210 210 210 210
WSpd 8 10 10 5 5 5 5 5 5 5 5 5 5 5
WGst 15 16 16 -- -- -- -- -- -- -- -- -- -- --
Raw TAF
KCLT 241953Z 2420/2524 20010G16KT P6SM SCT250
  FM250000 21005KT P6SM SCT150
  FM251700 23010G18KT P6SM SCT120 BKN250


Raw METAR
KCLT 242052Z 21008G15KT 10SM FEW080 FEW200 SCT250 29/10 A2988 RMK AO2 SLP109 T02940100 56020
KCLT 241952Z 21007G16KT 10SM FEW200 SCT250 29/10 A2989 RMK AO2 SLP114 T02940100
KCLT 241852Z 20010G14KT 10SM FEW180 SCT250 29/09 A2991 RMK AO2 SLP121 T02940094

METAR Board
Radar Display
Forecast Discussion
For situational awareness. Not to be used for flight planning purposes.